sensor_id;sensor_type;location;lat;lon;timestamp;pressure;altitude;pressure_sealevel;temperature;humidity
20037;BME280;10179;42.640;23.312;2022-11-20T00:01:40;92913.78;;;22.21;38.61
20037;BME280;10179;42.640;23.312;2022-11-20T00:04:05;92968.06;;;22.38;39.06
20037;BME280;10179;42.640;23.312;2022-11-20T00:06:31;93003.19;;;22.37;39.03
20037;BME280;10179;42.640;23.312;2022-11-20T00:08:58;92977.53;;;22.36;38.76
20037;BME280;10179;42.640;23.312;2022-11-20T00:11:26;92868.38;;;21.55;39.24
20037;BME280;10179;42.640;23.312;2022-11-20T00:13:55;92957.06;;;21.26;38.92
20037;BME280;10179;42.640;23.312;2022-11-20T00:16:24;92852.69;;;21.62;39.20
20037;BME280;10179;42.640;23.312;2022-11-20T00:18:50;92946.69;;;22.30;39.48
20037;BME280;10179;42.640;23.312;2022-11-20T00:21:21;92932.97;;;22.31;39.45
20037;BME280;10179;42.640;23.312;2022-11-20T00:23:47;92955.78;;;22.29;39.33
20037;BME280;10179;42.640;23.312;2022-11-20T00:26:15;92931.25;;;22.27;39.66
20037;BME280;10179;42.640;23.312;2022-11-20T00:28:42;92940.38;;;22.26;39.29
20037;BME280;10179;42.640;23.312;2022-11-20T00:31:11;92931.25;;;22.27;39.05
20037;BME280;10179;42.640;23.312;2022-11-20T00:33:36;92866.25;;;21.91;38.91
20037;BME280;10179;42.640;23.312;2022-11-20T00:36:04;92906.66;;;22.07;39.16
20037;BME280;10179;42.640;23.312;2022-11-20T00:38:30;92948.09;;;22.27;38.77
20037;BME280;10179;42.640;23.312;2022-11-20T00:41:04;92949.81;;;22.32;38.55
20037;BME280;10179;42.640;23.312;2022-11-20T00:43:29;92896.25;;;21.97;38.82
20037;BME280;10179;42.640;23.312;2022-11-20T00:48:23;92982.41;;;22.34;38.40
20037;BME280;10179;42.640;23.312;2022-11-20T00:50:48;92982.88;;;22.36;38.28
20037;BME280;10179;42.640;23.312;2022-11-20T00:53:14;92993.75;;;22.39;38.25
20037;BME280;10179;42.640;23.312;2022-11-20T00:55:39;93004.13;;;22.41;38.29
20037;BME280;10179;42.640;23.312;2022-11-20T00:58:05;92974.06;;;22.44;38.29
20037;BME280;10179;42.640;23.312;2022-11-20T01:00:30;92966.03;;;22.44;37.86
20037;BME280;10179;42.640;23.312;2022-11-20T01:02:55;92972.31;;;22.48;38.15
20037;BME280;10179;42.640;23.312;2022-11-20T01:05:21;92990.72;;;22.50;37.54
20037;BME280;10179;42.640;23.312;2022-11-20T01:07:46;92961.78;;;22.52;37.71
20037;BME280;10179;42.640;23.312;2022-11-20T01:10:12;92881.34;;;21.87;38.04
20037;BME280;10179;42.640;23.312;2022-11-20T01:12:37;92897.06;;;21.98;37.65
20037;BME280;10179;42.640;23.312;2022-11-20T01:15:03;92945.22;;;22.50;37.46
20037;BME280;10179;42.640;23.312;2022-11-20T01:17:28;92939.09;;;22.49;37.63
20037;BME280;10179;42.640;23.312;2022-11-20T01:19:53;92667.31;;;20.62;37.45
20037;BME280;10179;42.640;23.312;2022-11-20T01:22:19;92831.16;;;21.76;37.67
20037;BME280;10179;42.640;23.312;2022-11-20T01:24:44;92941.63;;;22.54;37.43
20037;BME280;10179;42.640;23.312;2022-11-20T01:27:09;92959.25;;;22.55;37.22
20037;BME280;10179;42.640;23.312;2022-11-20T01:29:35;92847.50;;;22.00;37.83
20037;BME280;10179;42.640;23.312;2022-11-20T01:32:00;92934.69;;;22.53;37.61
20037;BME280;10179;42.640;23.312;2022-11-20T01:34:26;92912.84;;;22.34;37.77
20037;BME280;10179;42.640;23.312;2022-11-20T01:36:52;92830.38;;;21.75;37.69
20037;BME280;10179;42.640;23.312;2022-11-20T01:39:21;92925.41;;;22.51;37.81
20037;BME280;10179;42.640;23.312;2022-11-20T01:41:48;92926.53;;;22.41;37.45
20037;BME280;10179;42.640;23.312;2022-11-20T01:47:30;92926.19;;;22.51;37.51
20037;BME280;10179;42.640;23.312;2022-11-20T01:50:09;92925.25;;;22.47;37.37
20037;BME280;10179;42.640;23.312;2022-11-20T01:52:40;92902.28;;;22.29;37.41
20037;BME280;10179;42.640;23.312;2022-11-20T01:55:11;92918.31;;;22.46;37.57
20037;BME280;10179;42.640;23.312;2022-11-20T01:57:38;92923.66;;;22.46;37.65
20037;BME280;10179;42.640;23.312;2022-11-20T02:00:11;92903.38;;;22.28;37.28
20037;BME280;10179;42.640;23.312;2022-11-20T02:02:39;92940.69;;;22.50;37.09
20037;BME280;10179;42.640;23.312;2022-11-20T02:08:08;92942.25;;;22.51;37.10
20037;BME280;10179;42.640;23.312;2022-11-20T02:10:34;92944.44;;;22.49;37.19
20037;BME280;10179;42.640;23.312;2022-11-20T02:13:00;92928.25;;;22.46;37.31
20037;BME280;10179;42.640;23.312;2022-11-20T02:15:44;92961.63;;;22.48;37.25
20037;BME280;10179;42.640;23.312;2022-11-20T02:18:11;92883.56;;;22.20;37.00
20037;BME280;10179;42.640;23.312;2022-11-20T02:20:40;92844.38;;;21.81;36.99
20037;BME280;10179;42.640;23.312;2022-11-20T02:23:15;92920.22;;;22.37;37.13
20037;BME280;10179;42.640;23.312;2022-11-20T02:25:45;92897.28;;;22.19;37.09
20037;BME280;10179;42.640;23.312;2022-11-20T02:28:12;92894.72;;;22.13;37.25
20037;BME280;10179;42.640;23.312;2022-11-20T02:30:38;92921.31;;;22.45;37.04
20037;BME280;10179;42.640;23.312;2022-11-20T02:33:03;92939.28;;;22.44;37.18
20037;BME280;10179;42.640;23.312;2022-11-20T02:37:56;92966.03;;;22.44;37.51
20037;BME280;10179;42.640;23.312;2022-11-20T02:40:21;92832.72;;;21.59;37.54
20037;BME280;10179;42.640;23.312;2022-11-20T02:42:47;92870.94;;;21.86;37.84
20037;BME280;10179;42.640;23.312;2022-11-20T02:45:13;93016.72;;;22.41;38.09
20037;BME280;10179;42.640;23.312;2022-11-20T02:47:38;92939.56;;;22.08;38.34
20037;BME280;10179;42.640;23.312;2022-11-20T02:50:04;92958.00;;;22.35;38.47
20037;BME280;10179;42.640;23.312;2022-11-20T02:52:30;92810.09;;;21.48;38.86
20037;BME280;10179;42.640;23.312;2022-11-20T02:54:56;92966.47;;;22.11;38.66
20037;BME280;10179;42.640;23.312;2022-11-20T02:57:21;92948.41;;;22.26;39.01
20037;BME280;10179;42.640;23.312;2022-11-20T02:59:47;92945.22;;;22.06;39.30
20037;BME280;10179;42.640;23.312;2022-11-20T03:02:12;92845.13;;;21.38;39.21
20037;BME280;10179;42.640;23.312;2022-11-20T03:04:37;92967.44;;;22.15;39.26
20037;BME280;10179;42.640;23.312;2022-11-20T03:07:03;92865.03;;;21.32;39.44
20037;BME280;10179;42.640;23.312;2022-11-20T03:09:29;92957.78;;;21.88;39.78
20037;BME280;10179;42.640;23.312;2022-11-20T03:11:54;92954.47;;;22.00;39.67
20037;BME280;10179;42.640;23.312;2022-11-20T03:14:20;92943.63;;;21.88;39.58
20037;BME280;10179;42.640;23.312;2022-11-20T03:16:45;92964.56;;;22.03;39.76
20037;BME280;10179;42.640;23.312;2022-11-20T03:19:11;92979.81;;;22.03;39.72
20037;BME280;10179;42.640;23.312;2022-11-20T03:21:37;92860.59;;;21.18;39.51
20037;BME280;10179;42.640;23.312;2022-11-20T03:24:03;92970.34;;;21.97;39.77
20037;BME280;10179;42.640;23.312;2022-11-20T03:26:28;92958.88;;;21.96;39.50
20037;BME280;10179;42.640;23.312;2022-11-20T03:28:59;92924.66;;;21.50;39.90
20037;BME280;10179;42.640;23.312;2022-11-20T03:31:30;92970.97;;;21.93;39.59
20037;BME280;10179;42.640;23.312;2022-11-20T03:33:57;92950.03;;;21.70;40.02
20037;BME280;10179;42.640;23.312;2022-11-20T03:36:23;92952.72;;;21.70;40.29
20037;BME280;10179;42.640;23.312;2022-11-20T03:38:49;92974.44;;;21.85;40.45
20037;BME280;10179;42.640;23.312;2022-11-20T03:41:20;92960.78;;;21.87;40.05
20037;BME280;10179;42.640;23.312;2022-11-20T03:43:50;92847.50;;;21.00;39.96
20037;BME280;10179;42.640;23.312;2022-11-20T03:46:16;92904.88;;;21.19;40.11
20037;BME280;10179;42.640;23.312;2022-11-20T03:48:42;92970.91;;;21.59;39.96
20037;BME280;10179;42.640;23.312;2022-11-20T03:51:16;92989.84;;;21.80;40.10
20037;BME280;10179;42.640;23.312;2022-11-20T03:53:43;92986.19;;;21.76;39.86
20037;BME280;10179;42.640;23.312;2022-11-20T03:56:10;92968.53;;;21.57;40.17
20037;BME280;10179;42.640;23.312;2022-11-20T03:58:37;92896.25;;;21.14;40.00
20037;BME280;10179;42.640;23.312;2022-11-20T04:01:08;92987.78;;;21.77;40.22
20037;BME280;10179;42.640;23.312;2022-11-20T04:03:35;92899.97;;;21.13;39.99
20037;BME280;10179;42.640;23.312;2022-11-20T04:06:06;92995.31;;;21.75;40.14
20037;BME280;10179;42.640;23.312;2022-11-20T04:08:32;92902.03;;;21.07;40.27
20037;BME280;10179;42.640;23.312;2022-11-20T04:11:10;93005.41;;;21.78;40.12
20037;BME280;10179;42.640;23.312;2022-11-20T04:13:35;92912.25;;;21.14;40.01
20037;BME280;10179;42.640;23.312;2022-11-20T04:16:01;92992.00;;;21.69;40.37
20037;BME280;10179;42.640;23.312;2022-11-20T04:18:26;92918.84;;;21.16;39.94
20037;BME280;10179;42.640;23.312;2022-11-20T04:20:52;92986.00;;;21.63;40.17
20037;BME280;10179;42.640;23.312;2022-11-20T04:23:17;93003.31;;;21.66;40.38
20037;BME280;10179;42.640;23.312;2022-11-20T04:25:42;92900.38;;;20.89;39.94
20037;BME280;10179;42.640;23.312;2022-11-20T04:28:08;92958.44;;;21.14;40.31
20037;BME280;10179;42.640;23.312;2022-11-20T04:30:33;93009.13;;;21.59;40.20
20037;BME280;10179;42.640;23.312;2022-11-20T04:32:59;93022.47;;;21.59;40.34
20037;BME280;10179;42.640;23.312;2022-11-20T04:35:24;92964.63;;;21.24;40.64
20037;BME280;10179;42.640;23.312;2022-11-20T04:37:51;93002.19;;;21.58;40.88
20037;BME280;10179;42.640;23.312;2022-11-20T04:40:17;92941.94;;;21.12;41.13
20037;BME280;10179;42.640;23.312;2022-11-20T04:42:42;93009.38;;;21.49;41.09
20037;BME280;10179;42.640;23.312;2022-11-20T04:45:08;92989.47;;;21.33;41.17
20037;BME280;10179;42.640;23.312;2022-11-20T04:47:33;92718.53;;;19.57;41.03
20037;BME280;10179;42.640;23.312;2022-11-20T04:49:59;93021.66;;;21.50;41.09
20037;BME280;10179;42.640;23.312;2022-11-20T04:52:24;93009.38;;;21.49;41.30
20037;BME280;10179;42.640;23.312;2022-11-20T04:54:50;92898.78;;;20.88;40.99
20037;BME280;10179;42.640;23.312;2022-11-20T04:57:18;93007.31;;;21.46;41.37
20037;BME280;10179;42.640;23.312;2022-11-20T04:59:43;92988.63;;;21.46;41.32
20037;BME280;10179;42.640;23.312;2022-11-20T05:02:09;92970.31;;;21.31;41.44
20037;BME280;10179;42.640;23.312;2022-11-20T05:04:35;92975.25;;;21.46;41.02
20037;BME280;10179;42.640;23.312;2022-11-20T05:07:00;92932.16;;;20.99;41.00
20037;BME280;10179;42.640;23.312;2022-11-20T05:09:25;92996.75;;;21.41;41.21
20037;BME280;10179;42.640;23.312;2022-11-20T05:11:51;92988.28;;;21.39;41.20
20037;BME280;10179;42.640;23.312;2022-11-20T05:14:16;92983.53;;;21.36;41.86
20037;BME280;10179;42.640;23.312;2022-11-20T05:16:41;92967.31;;;21.32;41.66
20037;BME280;10179;42.640;23.312;2022-11-20T05:19:07;92937.19;;;21.09;41.96
20037;BME280;10179;42.640;23.312;2022-11-20T05:21:32;92986.16;;;21.27;42.18
20037;BME280;10179;42.640;23.312;2022-11-20T05:23:58;92994.47;;;21.26;42.42
20037;BME280;10179;42.640;23.312;2022-11-20T05:26:23;92967.59;;;21.22;42.31
20037;BME280;10179;42.640;23.312;2022-11-20T05:28:49;92952.66;;;21.21;42.56
20037;BME280;10179;42.640;23.312;2022-11-20T05:31:18;92903.56;;;21.00;42.64
20037;BME280;10179;42.640;23.312;2022-11-20T05:33:44;92833.22;;;20.42;42.71
20037;BME280;10179;42.640;23.312;2022-11-20T05:36:11;92945.09;;;21.14;42.59
20037;BME280;10179;42.640;23.312;2022-11-20T05:38:37;92957.94;;;21.12;42.72
20037;BME280;10179;42.640;23.312;2022-11-20T05:41:11;92925.28;;;21.15;42.40
20037;BME280;10179;42.640;23.312;2022-11-20T05:43:38;92921.28;;;20.95;42.30
20037;BME280;10179;42.640;23.312;2022-11-20T05:46:06;92939.53;;;21.02;42.48
20037;BME280;10179;42.640;23.312;2022-11-20T05:48:33;92930.16;;;21.13;42.04
20037;BME280;10179;42.640;23.312;2022-11-20T05:51:00;92911.47;;;21.13;42.08
20037;BME280;10179;42.640;23.312;2022-11-20T05:53:25;92922.63;;;21.15;41.52
20037;BME280;10179;42.640;23.312;2022-11-20T05:56:02;92930.19;;;21.22;41.11
20037;BME280;10179;42.640;23.312;2022-11-20T05:58:29;92924.69;;;21.18;41.47
20037;BME280;10179;42.640;23.312;2022-11-20T06:01:06;92938.38;;;21.26;41.47
20037;BME280;10179;42.640;23.312;2022-11-20T06:03:32;92921.34;;;21.13;41.59
20037;BME280;10179;42.640;23.312;2022-11-20T06:05:59;92925.91;;;21.12;41.54
20037;BME280;10179;42.640;23.312;2022-11-20T06:08:25;92858.47;;;20.58;41.41
20037;BME280;10179;42.640;23.312;2022-11-20T06:10:50;92951.13;;;21.29;41.45
20037;BME280;10179;42.640;23.312;2022-11-20T06:13:15;92910.84;;;21.16;41.70
20037;BME280;10179;42.640;23.312;2022-11-20T06:15:41;92925.91;;;21.12;41.33
20037;BME280;10179;42.640;23.312;2022-11-20T06:18:06;92971.38;;;21.30;41.55
20037;BME280;10179;42.640;23.312;2022-11-20T06:20:31;92906.06;;;20.96;41.57
20037;BME280;10179;42.640;23.312;2022-11-20T06:22:57;92960.59;;;21.35;41.32
20037;BME280;10179;42.640;23.312;2022-11-20T06:25:22;92807.28;;;20.34;41.19
20037;BME280;10179;42.640;23.312;2022-11-20T06:27:48;93008.09;;;21.38;41.17
20037;BME280;10179;42.640;23.312;2022-11-20T06:30:13;92887.16;;;20.84;41.21
20037;BME280;10179;42.640;23.312;2022-11-20T06:32:38;92959.91;;;21.20;41.41
20037;BME280;10179;42.640;23.312;2022-11-20T06:35:04;92946.97;;;21.45;41.32
20037;BME280;10179;42.640;23.312;2022-11-20T06:37:29;92965.06;;;21.48;40.91
20037;BME280;10179;42.640;23.312;2022-11-20T06:39:55;92969.22;;;21.72;40.56
20037;BME280;10179;42.640;23.312;2022-11-20T06:42:20;92923.75;;;21.63;39.85
20037;BME280;10179;42.640;23.312;2022-11-20T06:44:46;92984.88;;;22.13;39.19
20037;BME280;10179;42.640;23.312;2022-11-20T06:47:11;92991.22;;;22.34;38.30
20037;BME280;10179;42.640;23.312;2022-11-20T06:49:36;92877.25;;;21.99;37.75
20037;BME280;10179;42.640;23.312;2022-11-20T06:52:04;92981.59;;;22.77;37.25
20037;BME280;10179;42.640;23.312;2022-11-20T06:54:29;92823.28;;;22.05;37.16
20037;BME280;10179;42.640;23.312;2022-11-20T06:56:55;92985.59;;;23.35;36.30
20037;BME280;10179;42.640;23.312;2022-11-20T06:59:20;93000.59;;;23.66;36.10
20037;BME280;10179;42.640;23.312;2022-11-20T07:01:46;93000.69;;;23.87;35.90
20037;BME280;10179;42.640;23.312;2022-11-20T07:04:11;93007.78;;;23.91;35.52
20037;BME280;10179;42.640;23.312;2022-11-20T07:06:37;92989.19;;;23.86;35.44
20037;BME280;10179;42.640;23.312;2022-11-20T07:09:02;92927.22;;;23.49;35.41
20037;BME280;10179;42.640;23.312;2022-11-20T07:11:28;92999.53;;;24.05;35.82
20037;BME280;10179;42.640;23.312;2022-11-20T07:13:53;92964.31;;;23.77;35.87
20037;BME280;10179;42.640;23.312;2022-11-20T07:16:19;93015.09;;;23.82;36.00
20037;BME280;10179;42.640;23.312;2022-11-20T07:18:45;93000.16;;;23.64;36.09
20037;BME280;10179;42.640;23.312;2022-11-20T07:21:10;93007.28;;;23.51;36.46
20037;BME280;10179;42.640;23.312;2022-11-20T07:23:36;92993.84;;;23.13;36.47
20037;BME280;10179;42.640;23.312;2022-11-20T07:26:09;92992.28;;;23.12;36.53
20037;BME280;10179;42.640;23.312;2022-11-20T07:28:35;93015.13;;;23.09;37.12
20037;BME280;10179;42.640;23.312;2022-11-20T07:31:02;93010.44;;;22.97;37.25
20037;BME280;10179;42.640;23.312;2022-11-20T07:33:28;92913.94;;;22.15;37.54
20037;BME280;10179;42.640;23.312;2022-11-20T07:35:53;92989.34;;;22.61;37.57
20037;BME280;10179;42.640;23.312;2022-11-20T07:38:18;92995.16;;;22.72;37.91
20037;BME280;10179;42.640;23.312;2022-11-20T07:40:44;93000.81;;;22.61;37.98
20037;BME280;10179;42.640;23.312;2022-11-20T07:43:09;93006.00;;;22.49;39.00
20037;BME280;10179;42.640;23.312;2022-11-20T07:45:35;92970.56;;;22.18;38.97
20037;BME280;10179;42.640;23.312;2022-11-20T07:48:00;92992.47;;;22.28;39.39
20037;BME280;10179;42.640;23.312;2022-11-20T07:50:25;93037.00;;;22.15;39.45
20037;BME280;10179;42.640;23.312;2022-11-20T07:52:51;93001.69;;;22.05;39.80
20037;BME280;10179;42.640;23.312;2022-11-20T07:55:17;93004.94;;;21.84;40.20
20037;BME280;10179;42.640;23.312;2022-11-20T07:57:42;92972.41;;;21.42;40.57
20037;BME280;10179;42.640;23.312;2022-11-20T08:00:10;93034.31;;;21.76;40.82
20037;BME280;10179;42.640;23.312;2022-11-20T08:02:40;93024.66;;;21.57;41.16
20037;BME280;10179;42.640;23.312;2022-11-20T08:05:07;93037.31;;;21.43;42.10
20037;BME280;10179;42.640;23.312;2022-11-20T08:07:40;93016.75;;;21.43;42.27
20037;BME280;10179;42.640;23.312;2022-11-20T08:10:07;92985.53;;;20.99;42.60
20037;BME280;10179;42.640;23.312;2022-11-20T08:12:33;93038.53;;;21.37;42.09
20037;BME280;10179;42.640;23.312;2022-11-20T08:15:17;93043.53;;;21.07;42.73
20037;BME280;10179;42.640;23.312;2022-11-20T08:17:42;93031.88;;;21.48;42.52
20037;BME280;10179;42.640;23.312;2022-11-20T08:20:08;93001.16;;;21.37;42.45
20037;BME280;10179;42.640;23.312;2022-11-20T08:22:34;93007.81;;;21.48;41.74
20037;BME280;10179;42.640;23.312;2022-11-20T08:25:00;93051.59;;;21.70;41.92
20037;BME280;10179;42.640;23.312;2022-11-20T08:27:25;92775.94;;;19.86;41.51
20037;BME280;10179;42.640;23.312;2022-11-20T08:29:51;92995.44;;;21.30;41.18
20037;BME280;10179;42.640;23.312;2022-11-20T08:32:16;93076.25;;;22.06;41.26
20037;BME280;10179;42.640;23.312;2022-11-20T08:34:42;93039.09;;;21.96;40.86
20037;BME280;10179;42.640;23.312;2022-11-20T08:37:07;93068.63;;;22.22;40.85
20037;BME280;10179;42.640;23.312;2022-11-20T08:39:32;93052.41;;;22.19;40.46
20037;BME280;10179;42.640;23.312;2022-11-20T08:41:58;93065.34;;;22.34;40.14
20037;BME280;10179;42.640;23.312;2022-11-20T08:44:23;93085.66;;;22.35;41.28
20037;BME280;10179;42.640;23.312;2022-11-20T08:46:49;93097.47;;;22.34;41.77
20037;BME280;10179;42.640;23.312;2022-11-20T08:49:14;92978.53;;;21.43;42.23
20037;BME280;10179;42.640;23.312;2022-11-20T08:51:41;93092.28;;;21.98;42.83
20037;BME280;10179;42.640;23.312;2022-11-20T08:54:06;93003.50;;;21.07;43.80
20037;BME280;10179;42.640;23.312;2022-11-20T08:56:32;93101.69;;;21.55;44.10
20037;BME280;10179;42.640;23.312;2022-11-20T08:58:58;93077.41;;;21.20;44.53
20037;BME280;10179;42.640;23.312;2022-11-20T09:01:24;92994.91;;;20.65;44.98
20037;BME280;10179;42.640;23.312;2022-11-20T09:03:50;93072.25;;;21.02;45.26
20037;BME280;10179;42.640;23.312;2022-11-20T09:06:16;93104.00;;;21.03;46.00
20037;BME280;10179;42.640;23.312;2022-11-20T09:08:42;93115.38;;;20.95;45.93
20037;BME280;10179;42.640;23.312;2022-11-20T09:11:08;92968.53;;;19.91;46.52
20037;BME280;10179;42.640;23.312;2022-11-20T09:13:34;93109.75;;;20.60;47.35
20037;BME280;10179;42.640;23.312;2022-11-20T09:16:05;93094.56;;;20.33;47.20
20037;BME280;10179;42.640;23.312;2022-11-20T09:18:32;93083.81;;;19.97;47.28
20037;BME280;10179;42.640;23.312;2022-11-20T09:21:02;93084.41;;;19.66;49.00
20037;BME280;10179;42.640;23.312;2022-11-20T09:23:32;92958.94;;;18.42;51.37
20037;BME280;10179;42.640;23.312;2022-11-20T09:26:02;93034.09;;;18.67;53.03
20037;BME280;10179;42.640;23.312;2022-11-20T09:28:27;93047.59;;;18.70;54.43
20037;BME280;10179;42.640;23.312;2022-11-20T09:30:53;93079.72;;;18.79;54.97
20037;BME280;10179;42.640;23.312;2022-11-20T09:33:18;93086.47;;;18.71;56.00
20037;BME280;10179;42.640;23.312;2022-11-20T09:35:44;93092.41;;;18.63;56.63
20037;BME280;10179;42.640;23.312;2022-11-20T09:38:11;93078.09;;;18.59;57.26
20037;BME280;10179;42.640;23.312;2022-11-20T09:40:40;92945.88;;;17.70;57.78
20037;BME280;10179;42.640;23.312;2022-11-20T09:43:18;92858.44;;;17.17;58.76
20037;BME280;10179;42.640;23.312;2022-11-20T09:45:54;93053.25;;;18.50;58.90
20037;BME280;10179;42.640;23.312;2022-11-20T09:51:21;93038.88;;;18.51;60.32
20037;BME280;10179;42.640;23.312;2022-11-20T09:54:25;93050.28;;;18.70;60.80
20037;BME280;10179;42.640;23.312;2022-11-20T09:56:46;93030.09;;;18.31;60.70
20037;BME280;10179;42.640;23.312;2022-11-20T09:59:29;93030.59;;;18.52;61.68
20037;BME280;10179;42.640;23.312;2022-11-20T10:01:59;92862.66;;;17.18;61.54
20037;BME280;10179;42.640;23.312;2022-11-20T10:04:26;93056.81;;;18.59;62.00
20037;BME280;10179;42.640;23.312;2022-11-20T10:09:34;93014.44;;;18.49;61.93
20037;BME280;10179;42.640;23.312;2022-11-20T10:15:05;93016.19;;;18.91;61.44
20037;BME280;10179;42.640;23.312;2022-11-20T10:20:29;93043.47;;;19.29;61.55
20037;BME280;10179;42.640;23.312;2022-11-20T10:25:50;93038.69;;;19.45;60.59
20037;BME280;10179;42.640;23.312;2022-11-20T10:31:38;93037.59;;;19.60;59.37
20037;BME280;10179;42.640;23.312;2022-11-20T10:36:55;93046.88;;;19.49;58.66
20037;BME280;10179;42.640;23.312;2022-11-20T10:39:26;93046.47;;;19.42;57.89
20037;BME280;10179;42.640;23.312;2022-11-20T10:41:55;93048.94;;;19.38;58.87
20037;BME280;10179;42.640;23.312;2022-11-20T10:44:26;92993.66;;;19.02;59.03
20037;BME280;10179;42.640;23.312;2022-11-20T10:47:16;93053.66;;;19.41;58.96
20037;BME280;10179;42.640;23.312;2022-11-20T10:49:48;93055.91;;;19.48;59.63
20037;BME280;10179;42.640;23.312;2022-11-20T10:57:54;93072.53;;;19.59;59.71
20037;BME280;10179;42.640;23.312;2022-11-20T11:00:25;93071.84;;;19.53;59.27
20037;BME280;10179;42.640;23.312;2022-11-20T11:02:52;93075.38;;;19.48;59.73
20037;BME280;10179;42.640;23.312;2022-11-20T11:05:31;93076.25;;;19.44;59.21
20037;BME280;10179;42.640;23.312;2022-11-20T11:07:58;92992.00;;;18.55;59.81
20037;BME280;10179;42.640;23.312;2022-11-20T11:10:30;93107.06;;;19.17;60.52
20037;BME280;10179;42.640;23.312;2022-11-20T11:12:58;92985.41;;;18.33;60.78
20037;BME280;10179;42.640;23.312;2022-11-20T11:15:37;93126.13;;;19.24;60.75
20037;BME280;10179;42.640;23.312;2022-11-20T11:18:03;93125.44;;;19.00;60.54
20037;BME280;10179;42.640;23.312;2022-11-20T11:20:28;93083.44;;;18.59;59.03
20037;BME280;10179;42.640;23.312;2022-11-20T11:22:56;93126.56;;;18.56;57.25
20037;BME280;10179;42.640;23.312;2022-11-20T11:25:35;93054.38;;;18.06;57.27
20037;BME280;10179;42.640;23.312;2022-11-20T11:28:20;92718.41;;;15.75;57.77
20037;BME280;10179;42.640;23.312;2022-11-20T11:30:46;93103.44;;;17.65;57.46
20037;BME280;10179;42.640;23.312;2022-11-20T11:33:28;93068.84;;;17.47;58.11
20037;BME280;10179;42.640;23.312;2022-11-20T11:35:56;92982.88;;;16.60;57.17
20037;BME280;10179;42.640;23.312;2022-11-20T11:41:00;92879.44;;;15.58;58.02
20037;BME280;10179;42.640;23.312;2022-11-20T11:43:29;92922.81;;;15.72;57.99
20037;BME280;10179;42.640;23.312;2022-11-20T11:49:00;93023.41;;;16.21;58.70
20037;BME280;10179;42.640;23.312;2022-11-20T11:51:32;92950.91;;;15.63;58.82
20037;BME280;10179;42.640;23.312;2022-11-20T11:54:00;93042.34;;;15.99;59.13
20037;BME280;10179;42.640;23.312;2022-11-20T11:56:28;93079.28;;;16.30;59.45
20037;BME280;10179;42.640;23.312;2022-11-20T11:58:57;93016.44;;;15.91;59.31
20037;BME280;10179;42.640;23.312;2022-11-20T12:01:38;93029.47;;;16.32;59.75
20037;BME280;10179;42.640;23.312;2022-11-20T12:04:22;92932.28;;;15.83;59.89
20037;BME280;10179;42.640;23.312;2022-11-20T12:07:06;92907.47;;;15.64;59.67
20037;BME280;10179;42.640;23.312;2022-11-20T12:09:41;93002.59;;;16.05;58.65
20037;BME280;10179;42.640;23.312;2022-11-20T12:12:09;93038.31;;;16.52;59.84
20037;BME280;10179;42.640;23.312;2022-11-20T12:14:37;93058.97;;;16.10;59.11
20037;BME280;10179;42.640;23.312;2022-11-20T12:17:04;93063.47;;;16.15;59.04
20037;BME280;10179;42.640;23.312;2022-11-20T12:19:31;93053.97;;;16.09;59.61
20037;BME280;10179;42.640;23.312;2022-11-20T12:25:19;93059.75;;;16.11;60.53
20037;BME280;10179;42.640;23.312;2022-11-20T12:33:46;93083.75;;;15.80;60.44
20037;BME280;10179;42.640;23.312;2022-11-20T12:41:41;92984.75;;;15.76;60.80
20037;BME280;10179;42.640;23.312;2022-11-20T12:47:59;92934.88;;;15.88;60.92
20037;BME280;10179;42.640;23.312;2022-11-20T12:56:33;92915.78;;;16.31;60.59
20037;BME280;10179;42.640;23.312;2022-11-20T13:01:44;92948.03;;;16.67;61.34
20037;BME280;10179;42.640;23.312;2022-11-20T13:07:02;92986.47;;;17.04;59.98
20037;BME280;10179;42.640;23.312;2022-11-20T13:09:29;93024.06;;;17.11;59.15
20037;BME280;10179;42.640;23.312;2022-11-20T13:12:05;92994.81;;;16.92;59.50
20037;BME280;10179;42.640;23.312;2022-11-20T13:14:42;93023.78;;;17.12;59.84
20037;BME280;10179;42.640;23.312;2022-11-20T13:19:42;93003.56;;;16.19;59.86
20037;BME280;10179;42.640;23.312;2022-11-20T13:22:11;92903.25;;;15.68;60.38
20037;BME280;10179;42.640;23.312;2022-11-20T13:24:36;93035.59;;;16.62;60.78
20037;BME280;10179;42.640;23.312;2022-11-20T13:29:41;93021.75;;;16.75;59.87
20037;BME280;10179;42.640;23.312;2022-11-20T13:32:18;93077.66;;;16.74;60.72
20037;BME280;10179;42.640;23.312;2022-11-20T13:34:56;92939.09;;;15.94;61.12
20037;BME280;10179;42.640;23.312;2022-11-20T13:37:31;93060.19;;;16.73;61.40
20037;BME280;10179;42.640;23.312;2022-11-20T13:42:46;93033.50;;;16.59;61.16
20037;BME280;10179;42.640;23.312;2022-11-20T13:45:25;93032.72;;;16.58;61.48
20037;BME280;10179;42.640;23.312;2022-11-20T13:47:52;93012.91;;;16.45;61.31
20037;BME280;10179;42.640;23.312;2022-11-20T13:50:19;93031.13;;;16.57;61.83
20037;BME280;10179;42.640;23.312;2022-11-20T14:01:41;93059.50;;;16.96;62.55
20037;BME280;10179;42.640;23.312;2022-11-20T14:04:06;93060.50;;;17.00;62.58
20037;BME280;10179;42.640;23.312;2022-11-20T14:06:44;93059.19;;;17.03;62.27
20037;BME280;10179;42.640;23.312;2022-11-20T14:09:29;93054.88;;;17.07;62.74
20037;BME280;10179;42.640;23.312;2022-11-20T14:11:54;92861.34;;;15.80;62.46
20037;BME280;10179;42.640;23.312;2022-11-20T14:14:22;93046.97;;;17.02;62.24
20037;BME280;10179;42.640;23.312;2022-11-20T14:16:49;93052.78;;;17.04;61.95
20037;BME280;10179;42.640;23.312;2022-11-20T14:21:53;93000.22;;;16.77;62.34
20037;BME280;10179;42.640;23.312;2022-11-20T14:24:22;93043.16;;;17.13;62.19
20037;BME280;10179;42.640;23.312;2022-11-20T14:26:48;92999.66;;;16.85;62.35